Terminal Aerodrome Forecast
Issued by NWS Green Bay, WI

Home | Current Version | Previous Version | Graphics & Text | Print | Product List | Glossary On
Versions: 1 2 3 4 5 6 7 8 9 10 11 12 13 14 15 16 17 18 19 20 21 22 23 24 25 26 27 28 29
000
FTUS43 KGRB 190520
TAFGRB
TAF
KGRB 190520Z 1906/2006 28004KT P6SM BKN250
     FM191100 28003KT 5SM BR SCT200
     FM191600 VRB03KT P6SM SCT200
     FM192100 10004KT P6SM SCT200
     FM200300 10005KT 6SM BR SCT100=

USA.gov is the U.S. government's official web portal to all federal, state and local government web resources and services.